Time;durP1;ratioP1;P1;durP2;ratioP2;P2;SDS_P1;SDS_P2;PMS_P1;PMS_P2;Temp;Humidity;BMP_temperature;BMP_pressure;BME280_temperature;BME280_humidity;BME280_pressure;Samples;Min_cycle;Max_cycle;Signal;HPM_P1;HPM_P2
2021/12/17 00:00:56;;;;;;;36.65;8.48;;;7.70;99.90;;;;;;4934601;28;20336;-81
2021/12/17 00:03:33;;;;;;;30.67;7.75;;;7.70;99.90;;;;;;4941811;28;20043;-80
2021/12/17 00:08:38;;;;;;;45.70;8.55;;;7.70;99.90;;;;;;4952635;28;20046;-80
2021/12/17 00:11:05;;;;;;;34.45;9.35;;;7.70;99.90;;;;;;4949488;28;20039;-80
2021/12/17 00:13:32;;;;;;;28.95;7.95;;;7.70;99.90;;;;;;4937499;28;20110;-81
2021/12/17 00:15:58;;;;;;;31.67;9.15;;;7.70;99.90;;;;;;4956832;28;20496;-81
2021/12/17 00:18:41;;;;;;;24.42;7.85;;;7.70;99.90;;;;;;4941832;28;20039;-80
2021/12/17 00:40:34;;;;;;;23.45;5.93;;;7.80;99.90;;;;;;4971501;28;20510;-80
2021/12/17 00:48:37;;;;;;;36.15;7.93;;;7.80;99.90;;;;;;4964790;28;20492;-82
2021/12/17 00:53:59;;;;;;;27.60;7.40;;;7.80;99.90;;;;;;4952856;28;20079;-81
2021/12/17 00:56:27;;;;;;;26.42;6.95;;;7.70;99.90;;;;;;4953708;28;20047;-80
2021/12/17 00:58:53;;;;;;;27.40;7.75;;;7.70;99.90;;;;;;4954468;28;20042;-80
2021/12/17 01:01:20;;;;;;;22.52;7.35;;;7.70;99.90;;;;;;4937948;28;20054;-80
2021/12/17 01:03:47;;;;;;;16.85;5.38;;;7.70;99.90;;;;;;4936245;28;20040;-80
2021/12/17 01:06:13;;;;;;;24.98;7.53;;;7.70;99.90;;;;;;4955149;28;20038;-81
2021/12/17 01:08:39;;;;;;;27.58;7.57;;;7.70;99.90;;;;;;4952627;28;20061;-80
2021/12/17 01:11:06;;;;;;;27.40;8.23;;;7.70;99.90;;;;;;4936450;29;20491;-83
2021/12/17 01:13:34;;;;;;;26.42;7.18;;;7.60;99.90;;;;;;4936448;28;20055;-84
2021/12/17 01:16:00;;;;;;;26.55;7.75;;;7.70;99.90;;;;;;4953501;28;20039;-83
2021/12/17 01:18:39;;;;;;;30.65;8.35;;;7.70;99.90;;;;;;4953085;28;20039;-81
2021/12/17 01:36:38;;;;;;;21.00;6.38;;;7.60;99.90;;;;;;4970299;28;20043;-82
2021/12/17 01:40:20;;;;;;;19.40;6.35;;;7.60;99.90;;;;;;4932636;29;20035;-81
2021/12/17 01:42:05;;;;;;;18.30;6.65;;;7.70;99.90;;;;;;4949672;28;20126;-81
2021/12/17 01:44:34;;;;;;;18.25;6.03;;;7.60;99.90;;;;;;4948042;28;20043;-80
2021/12/17 01:47:00;;;;;;;21.08;6.10;;;7.70;99.90;;;;;;4956261;28;20043;-81
2021/12/17 02:00:19;;;;;;;19.40;7.05;;;7.70;99.90;;;;;;4955997;28;20050;-80
2021/12/17 02:02:55;;;;;;;20.08;6.28;;;7.70;99.90;;;;;;4939987;28;20493;-80
2021/12/17 02:05:21;;;;;;;14.57;5.10;;;7.70;99.90;;;;;;4973440;28;20458;-80
2021/12/17 02:07:50;;;;;;;21.30;6.25;;;7.70;99.90;;;;;;4956729;28;20089;-80
2021/12/17 02:19:29;;;;;;;19.60;5.20;;;7.70;99.90;;;;;;4932581;28;20046;-79
2021/12/17 02:32:04;;;;;;;19.67;6.72;;;7.70;99.90;;;;;;4957827;28;20042;-79
2021/12/17 02:34:53;;;;;;;19.75;6.72;;;7.70;99.90;;;;;;4968747;28;20043;-79
2021/12/17 02:37:22;;;;;;;17.95;6.30;;;7.70;99.90;;;;;;4953420;28;20399;-79
2021/12/17 02:42:34;;;;;;;26.20;8.10;;;7.70;99.90;;;;;;4958966;28;20043;-79
2021/12/17 02:47:50;;;;;;;23.50;7.10;;;7.70;99.90;;;;;;4951429;28;20117;-79
2021/12/17 02:50:15;;;;;;;24.90;7.25;;;7.70;99.90;;;;;;4956776;28;20428;-79
2021/12/17 02:52:42;;;;;;;27.45;7.75;;;7.70;99.90;;;;;;4972182;28;20051;-79
2021/12/17 02:55:08;;;;;;;28.75;8.63;;;7.80;99.90;;;;;;4939426;28;20078;-79
2021/12/17 02:57:35;;;;;;;24.02;7.45;;;7.80;99.90;;;;;;4958798;28;20042;-79
2021/12/17 03:00:05;;;;;;;27.17;7.88;;;7.80;99.90;;;;;;4956376;28;20065;-80
2021/12/17 03:02:36;;;;;;;26.33;6.82;;;7.80;99.90;;;;;;4938645;28;20054;-80
2021/12/17 03:05:02;;;;;;;30.25;8.23;;;7.80;99.90;;;;;;4956231;28;20096;-80
2021/12/17 03:07:28;;;;;;;25.50;7.47;;;7.80;99.90;;;;;;4943364;28;20435;-79
2021/12/17 03:10:04;;;;;;;29.25;8.73;;;7.80;99.90;;;;;;4961592;28;20042;-79
2021/12/17 03:12:44;;;;;;;30.52;8.35;;;7.80;99.90;;;;;;4937897;28;20330;-79
2021/12/17 03:25:54;;;;;;;36.55;9.23;;;7.80;99.90;;;;;;4954191;28;20077;-79
2021/12/17 03:28:20;;;;;;;32.90;9.00;;;7.80;99.90;;;;;;4940051;28;20118;-79
2021/12/17 03:30:46;;;;;;;36.53;8.75;;;7.80;99.90;;;;;;4936861;28;20158;-80
2021/12/17 03:33:12;;;;;;;20.95;7.25;;;7.80;99.90;;;;;;4949369;28;20514;-79
2021/12/17 03:35:39;;;;;;;31.33;8.45;;;7.80;99.90;;;;;;4954745;28;20046;-80
2021/12/17 03:38:05;;;;;;;23.23;6.88;;;7.80;99.90;;;;;;4955372;28;20043;-80
2021/12/17 03:40:33;;;;;;;32.05;8.10;;;7.80;99.90;;;;;;4955375;28;20050;-80
2021/12/17 03:43:04;;;;;;;23.05;6.68;;;7.80;99.90;;;;;;4956471;28;20077;-80
2021/12/17 03:45:31;;;;;;;32.88;8.93;;;7.80;99.90;;;;;;4956099;28;20038;-79
2021/12/17 03:47:57;;;;;;;30.48;7.70;;;7.80;99.90;;;;;;4941868;28;20543;-80
2021/12/17 03:50:23;;;;;;;22.30;7.10;;;7.80;99.90;;;;;;4938097;28;20093;-79
2021/12/17 03:52:49;;;;;;;28.23;7.00;;;7.80;99.90;;;;;;4976194;28;20047;-79
2021/12/17 03:55:15;;;;;;;22.00;6.15;;;7.80;99.90;;;;;;4949992;28;20681;-80
2021/12/17 03:57:41;;;;;;;17.00;5.85;;;7.80;99.90;;;;;;4953944;28;20039;-79
2021/12/17 04:00:09;;;;;;;19.60;6.03;;;7.80;99.90;;;;;;4958330;28;20352;-79
2021/12/17 04:02:35;;;;;;;15.32;4.88;;;7.80;99.90;;;;;;4957265;28;20026;-80
2021/12/17 04:05:01;;;;;;;12.48;5.00;;;7.80;99.90;;;;;;4957182;28;20043;-80
2021/12/17 04:07:27;;;;;;;28.33;7.65;;;7.80;99.90;;;;;;4954225;28;20038;-80
2021/12/17 04:09:52;;;;;;;20.30;6.03;;;7.80;99.90;;;;;;4938213;28;20109;-80
2021/12/17 04:12:21;;;;;;;17.77;5.30;;;7.80;99.90;;;;;;4938197;28;20491;-79
2021/12/17 04:14:48;;;;;;;16.27;5.80;;;7.80;99.90;;;;;;4954809;28;20043;-80
2021/12/17 04:17:24;;;;;;;15.82;5.30;;;7.80;99.90;;;;;;4955212;28;20093;-80
2021/12/17 04:19:50;;;;;;;29.70;6.25;;;7.70;99.90;;;;;;4951955;28;20374;-79
2021/12/17 04:22:16;;;;;;;14.38;4.72;;;7.70;99.90;;;;;;4952496;28;20069;-79
2021/12/17 04:24:41;;;;;;;15.32;4.93;;;7.70;99.90;;;;;;4953359;28;20054;-79
2021/12/17 04:27:07;;;;;;;12.88;5.05;;;7.70;99.90;;;;;;4954459;28;20051;-79
2021/12/17 04:29:39;;;;;;;18.98;5.65;;;7.70;99.90;;;;;;4942054;28;20038;-79
2021/12/17 04:32:06;;;;;;;11.20;4.30;;;7.70;99.90;;;;;;4938353;28;20069;-79
2021/12/17 04:34:32;;;;;;;14.20;4.75;;;7.70;99.90;;;;;;4942446;28;20046;-79
2021/12/17 04:36:57;;;;;;;15.80;5.45;;;7.70;99.90;;;;;;4958645;28;20039;-79
2021/12/17 04:39:24;;;;;;;19.38;6.07;;;7.70;99.90;;;;;;4938632;28;20042;-79
2021/12/17 04:41:58;;;;;;;12.02;4.63;;;7.70;99.90;;;;;;4936176;28;20035;-80
2021/12/17 04:44:28;;;;;;;13.43;4.60;;;7.70;99.90;;;;;;4952147;28;20523;-80
2021/12/17 04:57:40;;;;;;;10.85;4.38;;;7.70;99.90;;;;;;4954155;28;20039;-79
2021/12/17 05:00:25;;;;;;;12.48;4.20;;;7.70;99.90;;;;;;4937006;28;20046;-79
2021/12/17 05:02:54;;;;;;;13.68;4.45;;;7.70;99.90;;;;;;4953359;28;20082;-79
2021/12/17 05:05:25;;;;;;;15.18;4.63;;;7.70;99.90;;;;;;4952683;28;20070;-79
2021/12/17 05:07:58;;;;;;;11.07;4.28;;;7.70;99.90;;;;;;4957979;28;20046;-80
2021/12/17 05:18:38;;;;;;;13.82;4.75;;;7.70;99.90;;;;;;4953114;28;20042;-79
2021/12/17 05:21:08;;;;;;;18.38;5.88;;;7.70;99.90;;;;;;4931072;28;20510;-79
2021/12/17 05:23:39;;;;;;;10.35;4.72;;;7.70;99.90;;;;;;4951488;28;20051;-79
2021/12/17 05:26:07;;;;;;;14.20;5.05;;;7.70;99.90;;;;;;4936884;28;20081;-79
2021/12/17 05:28:34;;;;;;;12.73;5.35;;;7.70;99.90;;;;;;4937954;28;20510;-79
2021/12/17 05:31:00;;;;;;;13.50;4.88;;;7.70;99.90;;;;;;4937060;28;20039;-79
2021/12/17 05:33:26;;;;;;;14.90;5.03;;;7.70;99.90;;;;;;4939579;28;20042;-79
2021/12/17 05:35:52;;;;;;;12.27;4.40;;;7.70;99.90;;;;;;4951881;28;20037;-79
2021/12/17 05:38:20;;;;;;;11.25;4.13;;;7.70;99.90;;;;;;4932072;28;20462;-79
2021/12/17 05:40:46;;;;;;;10.75;3.95;;;7.70;99.90;;;;;;4955437;28;20039;-79
2021/12/17 05:43:14;;;;;;;8.85;3.72;;;7.70;99.90;;;;;;4954370;28;20407;-81
2021/12/17 05:48:20;;;;;;;11.80;4.18;;;7.70;99.90;;;;;;4950915;28;20039;-80
2021/12/17 05:50:47;;;;;;;9.10;3.60;;;7.70;99.90;;;;;;4955143;28;20054;-79
2021/12/17 05:53:13;;;;;;;10.98;3.72;;;7.80;99.90;;;;;;4957959;28;20030;-81
2021/12/17 05:55:38;;;;;;;11.05;3.97;;;7.80;99.90;;;;;;4940867;28;20051;-81
2021/12/17 05:58:05;;;;;;;9.60;3.63;;;7.70;99.90;;;;;;4958979;28;20034;-80
2021/12/17 06:00:32;;;;;;;12.50;4.00;;;7.70;99.90;;;;;;4954724;28;20058;-80
2021/12/17 06:02:59;;;;;;;13.70;4.53;;;7.70;99.90;;;;;;4956618;28;20046;-80
2021/12/17 06:05:26;;;;;;;10.38;4.05;;;7.70;99.90;;;;;;4956937;28;20070;-80
2021/12/17 06:07:52;;;;;;;9.30;3.70;;;7.70;99.90;;;;;;4941487;28;20053;-80
2021/12/17 06:10:18;;;;;;;15.23;4.50;;;7.70;99.90;;;;;;4941040;28;20538;-80
2021/12/17 06:12:44;;;;;;;12.18;4.18;;;7.70;99.90;;;;;;4943772;28;20069;-80
2021/12/17 06:15:15;;;;;;;11.73;4.03;;;7.70;99.90;;;;;;4959289;28;20031;-80
2021/12/17 06:17:41;;;;;;;11.68;3.88;;;7.70;99.90;;;;;;4937519;28;20195;-80
2021/12/17 06:20:08;;;;;;;13.48;4.05;;;7.70;99.90;;;;;;4956233;28;20134;-81
2021/12/17 06:22:35;;;;;;;11.43;3.97;;;7.70;99.90;;;;;;4941600;28;20485;-80
2021/12/17 06:25:00;;;;;;;21.38;5.20;;;7.70;99.90;;;;;;4960465;28;20169;-80
2021/12/17 06:27:26;;;;;;;13.52;4.53;;;7.70;99.90;;;;;;4968234;28;20167;-80
2021/12/17 06:29:53;;;;;;;15.52;4.53;;;7.70;99.90;;;;;;4955701;28;20042;-81
2021/12/17 06:32:20;;;;;;;10.25;3.83;;;7.60;99.90;;;;;;4937792;28;20555;-80
2021/12/17 06:34:46;;;;;;;11.85;4.20;;;7.70;99.90;;;;;;4957963;28;20816;-81
2021/12/17 06:37:12;;;;;;;12.90;4.50;;;7.70;99.90;;;;;;4938293;28;20481;-80
2021/12/17 06:39:38;;;;;;;10.27;3.72;;;7.70;99.90;;;;;;4959762;28;20122;-80
2021/12/17 06:42:04;;;;;;;13.68;4.78;;;7.70;99.90;;;;;;4959833;28;20117;-80
2021/12/17 06:44:30;;;;;;;10.48;4.32;;;7.70;99.90;;;;;;4953985;28;20046;-81
2021/12/17 06:47:09;;;;;;;17.05;4.25;;;7.70;99.90;;;;;;4946550;28;20080;-80
2021/12/17 06:55:02;;;;;;;12.18;3.95;;;7.60;99.90;;;;;;4954612;28;20148;-81
2021/12/17 07:09:12;;;;;;;12.50;3.90;;;7.60;99.90;;;;;;4957067;28;20137;-81
2021/12/17 07:11:52;;;;;;;16.60;5.00;;;7.60;99.90;;;;;;4957113;28;20170;-81
2021/12/17 07:35:53;;;;;;;23.50;6.13;;;7.60;99.90;;;;;;4961931;28;20085;-81
2021/12/17 07:41:03;;;;;;;20.02;5.82;;;7.60;99.90;;;;;;4957057;28;20558;-80
2021/12/17 07:43:40;;;;;;;12.48;4.85;;;7.60;99.90;;;;;;4941681;28;20093;-81
2021/12/17 07:46:12;;;;;;;12.57;3.88;;;7.50;99.90;;;;;;4968526;28;20074;-81
2021/12/17 07:48:39;;;;;;;13.90;4.32;;;7.50;99.90;;;;;;4955414;28;20035;-81
2021/12/17 07:51:07;;;;;;;23.77;6.18;;;7.50;99.90;;;;;;4965929;28;20066;-80
2021/12/17 07:53:34;;;;;;;12.70;4.30;;;7.50;99.90;;;;;;4940522;28;20144;-81
2021/12/17 07:56:01;;;;;;;17.20;5.18;;;7.50;99.90;;;;;;4959672;28;20044;-81
2021/12/17 07:58:28;;;;;;;15.75;5.18;;;7.40;99.90;;;;;;4939134;28;20202;-81
2021/12/17 08:00:55;;;;;;;25.90;6.30;;;7.50;99.90;;;;;;4951560;28;20067;-81
2021/12/17 08:03:21;;;;;;;19.02;5.05;;;7.50;99.90;;;;;;4939490;28;20377;-81
2021/12/17 08:05:47;;;;;;;32.65;6.30;;;7.40;99.90;;;;;;4941884;28;20074;-81
2021/12/17 08:08:13;;;;;;;24.83;5.50;;;7.40;99.90;;;;;;4943507;28;20085;-81
2021/12/17 08:10:39;;;;;;;20.65;5.05;;;7.40;99.90;;;;;;4972356;28;20034;-81
2021/12/17 08:13:07;;;;;;;23.95;5.78;;;7.40;99.90;;;;;;4958762;28;20439;-81
2021/12/17 08:15:39;;;;;;;27.63;6.03;;;7.40;99.90;;;;;;4935491;28;20552;-81
2021/12/17 08:26:07;;;;;;;20.55;5.78;;;7.50;99.90;;;;;;4955277;28;20134;-81
2021/12/17 08:28:50;;;;;;;20.92;6.47;;;7.40;99.90;;;;;;4940775;28;20380;-80
2021/12/17 08:31:16;;;;;;;14.27;4.55;;;7.40;99.90;;;;;;4944710;28;20035;-80
2021/12/17 08:33:42;;;;;;;16.08;4.90;;;7.40;99.90;;;;;;4951669;28;20530;-80
2021/12/17 08:36:07;;;;;;;21.60;6.38;;;7.50;99.90;;;;;;4936154;29;20126;-80
2021/12/17 08:38:33;;;;;;;18.02;5.28;;;7.50;99.90;;;;;;4970130;28;20429;-80
2021/12/17 08:41:00;;;;;;;14.93;4.55;;;7.50;99.90;;;;;;4944260;28;20039;-80
2021/12/17 08:43:25;;;;;;;19.30;5.80;;;7.50;99.90;;;;;;4954207;28;20062;-80
2021/12/17 08:45:52;;;;;;;20.40;5.90;;;7.50;99.90;;;;;;4954938;28;20039;-81
2021/12/17 08:48:17;;;;;;;17.77;5.90;;;7.60;99.90;;;;;;4953285;28;20043;-80
2021/12/17 08:50:43;;;;;;;19.80;5.75;;;7.50;99.90;;;;;;4939229;28;20543;-80
2021/12/17 08:53:09;;;;;;;14.38;5.03;;;7.60;99.90;;;;;;4941422;28;20474;-80
2021/12/17 08:55:35;;;;;;;15.55;5.60;;;7.60;99.90;;;;;;4972542;28;20043;-80
2021/12/17 08:58:01;;;;;;;20.00;5.82;;;7.60;99.90;;;;;;4953440;28;20088;-80
2021/12/17 09:00:27;;;;;;;25.23;6.97;;;7.60;99.90;;;;;;4939585;28;20146;-80
2021/12/17 09:02:58;;;;;;;16.50;5.85;;;7.70;99.90;;;;;;4956276;28;20125;-80
2021/12/17 09:05:24;;;;;;;17.67;5.45;;;7.70;99.90;;;;;;4957860;28;20108;-80
2021/12/17 09:07:49;;;;;;;19.55;6.05;;;7.70;99.90;;;;;;4948611;28;20058;-80
2021/12/17 09:10:20;;;;;;;14.30;5.03;;;7.70;99.90;;;;;;4942665;28;20053;-80
2021/12/17 09:12:46;;;;;;;24.67;6.45;;;7.70;99.90;;;;;;4948340;28;20051;-80
2021/12/17 09:15:11;;;;;;;20.90;5.80;;;7.70;99.90;;;;;;4953442;28;20092;-80
2021/12/17 09:17:38;;;;;;;19.08;5.70;;;7.80;99.90;;;;;;4938458;28;20034;-80
2021/12/17 09:20:05;;;;;;;16.20;5.97;;;7.80;99.90;;;;;;4943204;28;20093;-80
2021/12/17 09:22:34;;;;;;;13.45;4.78;;;7.80;99.90;;;;;;4937616;28;20041;-80
2021/12/17 09:25:00;;;;;;;18.98;6.15;;;7.80;99.90;;;;;;4946195;28;20093;-80
2021/12/17 09:27:26;;;;;;;16.42;5.60;;;7.80;99.90;;;;;;4934991;28;20054;-80
2021/12/17 09:29:51;;;;;;;15.02;5.05;;;7.90;99.90;;;;;;4949160;28;20117;-80
2021/12/17 09:32:17;;;;;;;19.85;6.70;;;7.90;99.90;;;;;;4957617;28;20055;-80
2021/12/17 09:34:42;;;;;;;14.75;5.20;;;7.90;99.90;;;;;;4951220;28;20074;-80
2021/12/17 09:37:08;;;;;;;17.15;5.85;;;7.90;99.90;;;;;;4952043;28;20243;-80
2021/12/17 09:39:34;;;;;;;21.67;6.40;;;7.90;99.90;;;;;;4954352;28;20564;-80
2021/12/17 09:42:00;;;;;;;15.35;5.20;;;7.90;99.90;;;;;;4954629;28;20043;-80
2021/12/17 09:44:26;;;;;;;16.60;5.45;;;7.90;99.90;;;;;;4945470;28;20038;-80
2021/12/17 09:46:57;;;;;;;16.50;5.93;;;7.90;99.90;;;;;;4954307;28;20448;-80
2021/12/17 09:49:23;;;;;;;16.92;6.00;;;7.90;99.90;;;;;;4937119;28;20117;-80
2021/12/17 09:51:49;;;;;;;23.23;6.68;;;8.00;99.90;;;;;;4957432;28;20454;-80
2021/12/17 09:54:15;;;;;;;15.70;5.80;;;8.00;99.90;;;;;;4937005;28;20062;-80
2021/12/17 09:56:41;;;;;;;15.98;6.05;;;8.00;99.90;;;;;;4936980;28;20046;-80
2021/12/17 09:59:07;;;;;;;16.23;5.18;;;8.10;99.90;;;;;;4953643;28;20038;-80
2021/12/17 10:01:37;;;;;;;15.93;5.88;;;8.10;99.90;;;;;;4950616;28;20050;-80
2021/12/17 10:04:19;;;;;;;13.98;5.10;;;8.10;99.90;;;;;;4943140;28;20043;-80
2021/12/17 10:06:47;;;;;;;21.55;6.72;;;8.10;99.90;;;;;;4949663;28;20039;-80
2021/12/17 10:09:19;;;;;;;20.20;6.32;;;8.10;99.90;;;;;;4938020;28;20047;-80
2021/12/17 10:12:05;;;;;;;15.90;5.88;;;8.20;99.90;;;;;;4937643;28;20515;-80
2021/12/17 10:14:31;;;;;;;15.70;4.63;;;8.20;99.90;;;;;;4938595;28;20171;-80
2021/12/17 10:17:11;;;;;;;18.75;6.53;;;8.20;99.90;;;;;;4933766;28;20075;-80
2021/12/17 10:19:49;;;;;;;16.95;5.57;;;8.20;99.90;;;;;;4939110;28;20514;-80
2021/12/17 10:22:18;;;;;;;18.42;5.10;;;8.20;99.90;;;;;;4953217;28;20117;-80
2021/12/17 10:24:55;;;;;;;15.80;5.25;;;8.20;99.90;;;;;;4934137;28;20047;-80
2021/12/17 10:27:25;;;;;;;15.13;5.07;;;8.30;99.90;;;;;;4939288;28;20125;-80
2021/12/17 10:29:51;;;;;;;17.80;6.68;;;8.30;99.90;;;;;;4944486;28;20444;-80
2021/12/17 10:32:23;;;;;;;19.88;6.70;;;8.30;99.90;;;;;;4958540;28;20048;-80
2021/12/17 10:34:59;;;;;;;15.25;5.32;;;8.30;99.90;;;;;;4958977;28;20042;-80
2021/12/17 10:37:33;;;;;;;17.40;5.78;;;8.30;99.90;;;;;;4953867;28;20039;-80
2021/12/17 10:39:59;;;;;;;18.15;6.70;;;8.30;99.90;;;;;;4951685;28;20081;-80
2021/12/17 10:42:39;;;;;;;17.35;6.35;;;8.40;99.90;;;;;;4942393;28;20030;-80
2021/12/17 10:45:12;;;;;;;23.75;7.80;;;8.30;99.90;;;;;;4973330;28;20057;-80
2021/12/17 10:47:47;;;;;;;23.77;8.18;;;8.30;99.90;;;;;;4941291;28;20436;-80
2021/12/17 10:50:23;;;;;;;25.45;9.13;;;8.30;99.90;;;;;;4942114;28;20114;-80
2021/12/17 10:52:58;;;;;;;28.33;9.55;;;8.40;99.90;;;;;;4952297;28;20464;-80
2021/12/17 10:55:24;;;;;;;32.25;12.13;;;8.40;99.90;;;;;;4951295;28;20460;-80
2021/12/17 10:57:57;;;;;;;26.55;10.98;;;8.40;99.90;;;;;;4958839;28;20411;-80
2021/12/17 11:00:22;;;;;;;31.70;12.38;;;8.40;99.90;;;;;;4962539;28;20058;-80
2021/12/17 11:02:50;;;;;;;35.70;12.63;;;8.40;99.90;;;;;;4946386;28;20039;-80
2021/12/17 11:05:16;;;;;;;28.25;11.50;;;8.40;99.90;;;;;;4957292;28;20042;-80
2021/12/17 11:07:50;;;;;;;32.05;13.32;;;8.40;99.90;;;;;;4953838;28;20074;-80
2021/12/17 11:10:23;;;;;;;38.30;13.98;;;8.50;99.90;;;;;;4953462;28;20513;-80
2021/12/17 11:12:49;;;;;;;34.90;13.90;;;8.50;99.90;;;;;;4955551;28;20306;-80
2021/12/17 11:15:25;;;;;;;41.00;15.90;;;8.50;99.90;;;;;;4942304;28;20038;-80
2021/12/17 11:17:56;;;;;;;28.75;12.35;;;8.50;99.90;;;;;;4955430;28;20023;-80
2021/12/17 11:20:30;;;;;;;31.10;12.65;;;8.60;99.90;;;;;;4956726;28;20058;-80
2021/12/17 11:23:03;;;;;;;20.50;9.15;;;8.60;99.90;;;;;;4952814;28;20081;-80
2021/12/17 11:25:30;;;;;;;27.25;10.35;;;8.60;99.90;;;;;;4956567;28;20050;-80
2021/12/17 11:27:56;;;;;;;16.08;7.03;;;8.60;99.90;;;;;;4938391;28;20563;-80
2021/12/17 11:30:25;;;;;;;23.77;8.45;;;8.60;99.90;;;;;;4955438;28;20158;-80
2021/12/17 11:32:52;;;;;;;17.85;7.03;;;8.70;99.90;;;;;;4959211;28;20038;-80
2021/12/17 11:35:20;;;;;;;18.13;6.55;;;8.70;99.90;;;;;;4943596;28;20097;-80
2021/12/17 11:37:49;;;;;;;15.73;6.20;;;8.70;99.90;;;;;;4967564;28;20050;-80
2021/12/17 11:40:40;;;;;;;18.33;7.13;;;8.70;99.90;;;;;;4951945;28;20472;-80
2021/12/17 11:43:18;;;;;;;13.35;6.15;;;8.70;99.90;;;;;;4953070;28;20511;-81
2021/12/17 11:45:45;;;;;;;11.98;5.22;;;8.80;99.90;;;;;;4955926;28;20096;-81
2021/12/17 11:48:16;;;;;;;9.63;4.20;;;8.70;99.90;;;;;;4952949;28;20473;-81
2021/12/17 11:50:43;;;;;;;12.55;5.35;;;8.70;99.90;;;;;;4941874;28;20527;-81
2021/12/17 11:53:18;;;;;;;9.93;4.68;;;8.80;99.90;;;;;;4958196;28;20459;-81
2021/12/17 11:55:48;;;;;;;14.50;5.60;;;8.80;99.90;;;;;;4967550;28;20082;-81
2021/12/17 11:58:16;;;;;;;13.80;5.78;;;8.80;99.90;;;;;;4953554;28;20062;-81
2021/12/17 12:00:42;;;;;;;13.57;6.10;;;8.80;99.90;;;;;;4959872;28;20042;-81
2021/12/17 12:03:23;;;;;;;13.82;5.50;;;8.80;99.90;;;;;;4959379;28;20058;-81
2021/12/17 12:05:51;;;;;;;12.85;5.47;;;8.80;99.90;;;;;;4953777;28;20452;-81
2021/12/17 12:08:23;;;;;;;13.55;6.10;;;8.80;99.90;;;;;;4949834;28;20051;-81
2021/12/17 12:11:09;;;;;;;15.83;6.57;;;8.80;99.90;;;;;;4940578;28;20054;-81
2021/12/17 12:13:35;;;;;;;15.13;6.55;;;8.90;99.90;;;;;;4939530;28;20444;-81
2021/12/17 12:16:03;;;;;;;14.50;6.57;;;8.90;99.90;;;;;;4952659;28;20035;-81
2021/12/17 12:19:03;;;;;;;13.85;6.57;;;8.90;99.90;;;;;;4956051;28;20559;-81
2021/12/17 12:21:35;;;;;;;15.77;6.55;;;8.80;99.90;;;;;;4923765;28;20062;-81
2021/12/17 12:24:16;;;;;;;12.73;5.78;;;8.90;99.90;;;;;;4949228;28;20077;-81
2021/12/17 12:26:48;;;;;;;14.15;6.10;;;8.90;99.90;;;;;;4953375;28;20038;-81
2021/12/17 12:29:21;;;;;;;15.80;7.40;;;8.90;99.90;;;;;;4940574;28;20038;-81
2021/12/17 12:31:54;;;;;;;12.60;5.60;;;8.90;99.90;;;;;;4953011;28;20074;-81
2021/12/17 12:34:27;;;;;;;19.75;6.43;;;9.00;99.90;;;;;;4935390;28;20051;-81
2021/12/17 12:37:04;;;;;;;15.93;5.85;;;9.00;99.90;;;;;;4953940;28;20053;-81
2021/12/17 12:39:35;;;;;;;14.13;5.85;;;9.00;99.90;;;;;;4931372;28;20070;-81
2021/12/17 12:42:11;;;;;;;13.00;5.70;;;9.00;99.90;;;;;;4951509;28;20400;-81
2021/12/17 12:44:46;;;;;;;16.55;6.57;;;9.00;99.90;;;;;;4950208;28;20043;-81
2021/12/17 12:47:14;;;;;;;16.80;7.53;;;9.10;99.90;;;;;;4968716;28;20039;-81
2021/12/17 12:49:47;;;;;;;15.63;7.38;;;9.10;99.90;;;;;;4938210;28;20038;-81
2021/12/17 12:52:31;;;;;;;14.60;6.20;;;9.20;99.90;;;;;;4949622;28;20043;-81
2021/12/17 12:55:26;;;;;;;13.07;5.57;;;9.30;99.90;;;;;;4950434;28;20055;-81
2021/12/17 12:58:05;;;;;;;17.58;6.85;;;9.30;99.90;;;;;;4954469;28;20034;-81
2021/12/17 13:00:45;;;;;;;16.15;6.93;;;9.30;99.90;;;;;;4953167;28;20496;-81
2021/12/17 13:03:15;;;;;;;12.13;5.18;;;9.30;99.90;;;;;;4951304;28;20042;-81
2021/12/17 13:05:42;;;;;;;10.80;5.22;;;9.30;99.90;;;;;;4951885;28;20079;-81
2021/12/17 13:08:12;;;;;;;15.23;6.72;;;9.30;99.90;;;;;;4957655;28;20041;-81
2021/12/17 13:10:40;;;;;;;13.60;6.50;;;9.30;99.90;;;;;;4953969;28;20132;-81
2021/12/17 13:13:20;;;;;;;12.40;5.68;;;9.30;99.90;;;;;;4956775;28;20074;-81
2021/12/17 13:24:08;;;;;;;11.85;5.65;;;9.40;99.90;;;;;;4958040;28;20053;-81
2021/12/17 13:26:35;;;;;;;13.07;5.22;;;9.40;99.90;;;;;;4956952;28;20037;-81
2021/12/17 13:29:12;;;;;;;10.65;5.57;;;9.40;99.90;;;;;;4956461;28;20031;-80
2021/12/17 13:32:05;;;;;;;13.70;5.88;;;9.30;99.90;;;;;;4949286;28;20121;-80
2021/12/17 13:34:39;;;;;;;12.05;4.97;;;9.30;99.90;;;;;;4940148;28;20051;-80
2021/12/17 13:37:15;;;;;;;12.52;5.43;;;9.30;99.90;;;;;;4964963;28;20637;-80
2021/12/17 13:39:46;;;;;;;10.57;5.38;;;9.20;99.90;;;;;;4948705;28;20097;-80
2021/12/17 13:42:27;;;;;;;11.52;5.88;;;9.20;99.90;;;;;;4946335;28;20046;-80
2021/12/17 13:45:07;;;;;;;15.15;6.10;;;9.20;99.90;;;;;;4949532;28;20048;-80
2021/12/17 13:47:37;;;;;;;11.32;5.20;;;9.20;99.90;;;;;;4954393;28;20077;-80
2021/12/17 13:50:28;;;;;;;12.95;6.28;;;9.20;99.90;;;;;;4953097;28;20061;-80
2021/12/17 13:53:27;;;;;;;10.45;5.57;;;9.20;99.90;;;;;;4930339;28;20075;-80
2021/12/17 13:55:52;;;;;;;11.63;5.93;;;9.20;99.90;;;;;;4906376;28;20114;-81
2021/12/17 13:58:24;;;;;;;14.90;6.22;;;9.20;99.90;;;;;;4936796;28;20055;-81
2021/12/17 14:00:52;;;;;;;12.32;5.57;;;9.20;99.90;;;;;;4953605;28;20050;-81
2021/12/17 14:03:21;;;;;;;10.85;5.93;;;9.20;99.90;;;;;;4953047;28;20726;-81
2021/12/17 14:05:57;;;;;;;10.63;5.68;;;9.20;99.90;;;;;;4955122;28;20032;-81
2021/12/17 14:08:23;;;;;;;11.48;5.93;;;9.20;99.90;;;;;;4946280;28;20122;-81
2021/12/17 14:10:53;;;;;;;11.85;5.95;;;9.10;99.90;;;;;;4937779;28;20050;-81
2021/12/17 14:13:22;;;;;;;11.05;5.55;;;9.10;99.90;;;;;;4935266;28;20039;-81
2021/12/17 14:15:50;;;;;;;13.15;6.53;;;9.10;99.90;;;;;;4932780;29;20549;-81
2021/12/17 14:18:18;;;;;;;11.25;5.45;;;9.10;99.90;;;;;;4951463;28;20062;-81
2021/12/17 14:20:53;;;;;;;13.40;6.55;;;9.10;99.90;;;;;;4937241;28;20480;-81
2021/12/17 14:23:23;;;;;;;11.40;5.82;;;9.10;99.90;;;;;;4936247;28;20106;-81
2021/12/17 14:26:09;;;;;;;13.68;6.43;;;9.10;99.90;;;;;;4956344;28;20417;-81
2021/12/17 14:28:40;;;;;;;14.07;6.18;;;9.10;99.90;;;;;;4959817;28;20039;-81
2021/12/17 14:31:17;;;;;;;13.93;7.13;;;9.10;99.90;;;;;;4953856;28;20108;-81
2021/12/17 14:33:49;;;;;;;16.70;7.38;;;9.00;99.90;;;;;;4938815;28;20043;-81
2021/12/17 14:36:38;;;;;;;16.35;6.63;;;9.10;99.90;;;;;;4932666;28;20424;-81
2021/12/17 14:39:16;;;;;;;13.30;5.60;;;9.00;99.90;;;;;;4923602;28;20532;-81
2021/12/17 14:41:59;;;;;;;11.15;5.90;;;9.00;99.90;;;;;;4950263;28;20481;-81
2021/12/17 14:44:37;;;;;;;15.35;6.82;;;9.00;99.90;;;;;;4955031;28;20040;-81
2021/12/17 14:47:21;;;;;;;11.18;5.65;;;9.00;99.90;;;;;;4937793;29;20035;-81
2021/12/17 15:01:10;;;;;;;13.98;6.70;;;9.00;99.90;;;;;;4954836;28;20079;-81
2021/12/17 15:06:02;;;;;;;13.10;6.63;;;8.90;99.90;;;;;;4958334;28;20043;-81
2021/12/17 15:08:28;;;;;;;16.02;7.50;;;8.90;99.90;;;;;;4957037;28;20101;-81
2021/12/17 15:10:55;;;;;;;13.77;6.88;;;9.00;99.90;;;;;;4944624;28;20057;-81
2021/12/17 15:13:21;;;;;;;15.13;7.75;;;8.90;99.90;;;;;;4953960;28;20424;-81
2021/12/17 15:15:47;;;;;;;13.60;6.28;;;8.90;99.90;;;;;;4942569;28;20039;-81
2021/12/17 15:18:15;;;;;;;13.15;6.38;;;8.90;99.90;;;;;;4960080;28;20042;-81
2021/12/17 15:20:52;;;;;;;13.13;6.85;;;9.00;99.90;;;;;;4955200;28;20034;-81
2021/12/17 15:23:19;;;;;;;12.68;6.25;;;8.90;99.90;;;;;;4945971;28;20072;-81
2021/12/17 15:25:45;;;;;;;11.93;6.03;;;8.90;99.90;;;;;;4958362;28;20065;-81
2021/12/17 15:28:13;;;;;;;13.52;5.88;;;8.90;99.90;;;;;;4958441;28;20038;-81
2021/12/17 15:30:42;;;;;;;11.25;4.45;;;8.90;99.90;;;;;;4951728;28;20062;-81
2021/12/17 15:33:09;;;;;;;12.18;5.50;;;8.90;99.90;;;;;;4954051;28;20097;-81
2021/12/17 15:35:35;;;;;;;10.30;5.20;;;8.90;99.90;;;;;;4946371;28;20403;-81
2021/12/17 15:38:00;;;;;;;10.68;4.68;;;8.90;99.90;;;;;;4949927;28;20038;-81
2021/12/17 15:40:27;;;;;;;9.38;4.95;;;8.90;99.90;;;;;;4950464;28;20043;-81
2021/12/17 15:43:00;;;;;;;10.73;5.35;;;8.90;99.90;;;;;;4936200;28;20042;-81
2021/12/17 15:45:26;;;;;;;10.77;5.28;;;8.90;99.90;;;;;;4956236;28;20046;-81
2021/12/17 15:47:52;;;;;;;12.50;5.75;;;8.90;99.90;;;;;;4949812;28;20042;-81
2021/12/17 15:50:17;;;;;;;12.95;5.95;;;8.90;99.90;;;;;;4960212;28;20046;-81
2021/12/17 15:52:46;;;;;;;11.43;5.50;;;8.90;99.90;;;;;;4939901;28;20138;-81
2021/12/17 15:55:21;;;;;;;13.35;5.28;;;8.90;99.90;;;;;;4955820;28;20054;-81
2021/12/17 15:57:47;;;;;;;11.07;4.88;;;8.90;99.90;;;;;;4955633;28;20125;-81
2021/12/17 16:00:15;;;;;;;11.68;5.40;;;8.90;99.90;;;;;;4961724;28;20480;-81
2021/12/17 16:02:42;;;;;;;8.52;4.22;;;8.90;99.90;;;;;;4958810;28;20122;-81
2021/12/17 16:05:11;;;;;;;6.50;3.42;;;8.90;99.90;;;;;;4959906;28;20605;-81
2021/12/17 16:07:36;;;;;;;8.07;4.22;;;8.90;99.90;;;;;;4956504;28;20042;-81